createdAt,value
2017-06-17T00:01:39.324Z,101859.43
2017-06-17T00:04:11.923Z,101861.39
2017-06-17T00:06:44.103Z,101860.37
2017-06-17T00:09:17.794Z,101857.86
2017-06-17T00:11:50.092Z,101866.34
2017-06-17T00:14:22.473Z,101857.67
2017-06-17T00:16:55.060Z,101859.38
2017-06-17T00:19:27.407Z,101854.53
2017-06-17T00:21:59.805Z,101855.98
2017-06-17T00:24:32.178Z,101859.23
2017-06-17T00:27:04.576Z,101855.77
2017-06-17T00:29:36.896Z,101858.41
2017-06-17T00:32:09.327Z,101852.48
2017-06-17T00:34:41.776Z,101859.02
2017-06-17T00:37:14.163Z,101862.69
2017-06-17T00:39:46.435Z,101866.88
2017-06-17T00:42:19.050Z,101868.49
2017-06-17T00:44:51.440Z,101868.30
2017-06-17T00:47:23.856Z,101870.09
2017-06-17T00:49:56.143Z,101870.31
2017-06-17T00:52:28.552Z,101864.91
2017-06-17T00:55:00.956Z,101871.55
2017-06-17T00:57:33.372Z,101871.88
2017-06-17T01:00:05.811Z,101869.36
2017-06-17T01:02:40.148Z,101873.54
2017-06-17T01:05:12.519Z,101870.77
2017-06-17T01:07:44.904Z,101863.14
2017-06-17T01:10:17.076Z,101871.20
2017-06-17T01:12:51.510Z,101871.02
2017-06-17T01:15:24.088Z,101868.83
2017-06-17T01:17:56.471Z,101871.88
2017-06-17T01:20:28.767Z,101872.64
2017-06-17T01:23:01.128Z,101876.24
2017-06-17T01:25:33.520Z,101878.32
2017-06-17T01:28:06.075Z,101887.76
2017-06-17T01:30:38.444Z,101883.58
2017-06-17T01:33:10.878Z,101876.22
2017-06-17T01:35:43.196Z,101878.59
2017-06-17T01:38:15.568Z,101878.55
2017-06-17T01:40:47.855Z,101877.02
2017-06-17T01:43:20.256Z,101880.31
2017-06-17T01:45:53.099Z,101882.59
2017-06-17T01:48:25.207Z,101879.00
2017-06-17T01:50:57.476Z,101876.43
2017-06-17T01:53:30.019Z,101879.12
2017-06-17T01:56:02.057Z,101874.73
2017-06-17T01:58:34.300Z,101877.84
2017-06-17T02:01:06.635Z,101872.66
2017-06-17T02:03:39.148Z,101874.53
2017-06-17T02:06:11.491Z,101873.02
2017-06-17T02:08:43.839Z,101863.51
2017-06-17T02:11:16.348Z,101858.78
2017-06-17T02:13:48.728Z,101864.56
2017-06-17T02:16:21.060Z,101860.31
2017-06-17T02:18:53.692Z,101860.55
2017-06-17T02:21:32.139Z,101864.23
2017-06-17T02:24:04.582Z,101862.02
2017-06-17T02:26:36.839Z,101865.67
2017-06-17T02:29:09.294Z,101858.89
2017-06-17T02:31:41.660Z,101859.53
2017-06-17T02:34:15.887Z,101858.66
2017-06-17T02:36:48.455Z,101865.02
2017-06-17T02:39:20.938Z,101868.23
2017-06-17T02:41:53.355Z,101865.38
2017-06-17T02:44:25.740Z,101868.83
2017-06-17T02:46:58.031Z,101868.46
2017-06-17T02:49:31.764Z,101870.31
2017-06-17T02:52:03.863Z,101875.76
2017-06-17T02:54:36.611Z,101877.14
2017-06-17T02:57:08.812Z,101873.66
2017-06-17T02:59:41.247Z,101881.18
2017-06-17T03:02:13.648Z,101891.05
2017-06-17T03:04:46.158Z,101892.81
2017-06-17T03:07:18.561Z,101895.22
2017-06-17T03:09:51.028Z,101890.30
2017-06-17T03:12:23.468Z,101883.42
2017-06-17T03:14:56.043Z,101887.80
2017-06-17T03:17:28.298Z,101894.14
2017-06-17T03:20:00.728Z,101893.52
2017-06-17T03:22:33.147Z,101890.50
2017-06-17T03:25:05.995Z,101899.09
2017-06-17T03:27:38.006Z,101899.06
2017-06-17T03:30:10.439Z,101902.36
2017-06-17T03:32:42.844Z,101909.86
2017-06-17T03:35:15.264Z,101901.48
2017-06-17T03:37:47.698Z,101899.27
2017-06-17T03:40:20.201Z,101907.02
2017-06-17T03:42:53.431Z,101897.14
2017-06-17T03:45:25.923Z,101905.77
2017-06-17T03:47:58.335Z,101890.95
2017-06-17T03:50:30.636Z,101900.68
2017-06-17T03:53:02.992Z,101897.84
2017-06-17T03:55:39.605Z,101906.18
2017-06-17T03:58:11.847Z,101900.78
2017-06-17T04:00:44.338Z,101886.16
2017-06-17T04:03:16.667Z,101888.83
2017-06-17T04:05:48.979Z,101889.22
2017-06-17T04:08:21.688Z,101893.47
2017-06-17T04:10:53.884Z,101897.50
2017-06-17T04:13:26.355Z,101894.47
2017-06-17T04:15:58.730Z,101892.28
2017-06-17T04:18:31.028Z,101897.98
2017-06-17T04:21:03.611Z,101889.81
2017-06-17T04:23:35.936Z,101882.81
2017-06-17T04:26:08.375Z,101893.08
2017-06-17T04:28:40.864Z,101901.04
2017-06-17T04:31:13.177Z,101890.95
2017-06-17T04:33:45.559Z,101897.64
2017-06-17T04:36:18.011Z,101889.64
2017-06-17T04:38:51.329Z,101885.05
2017-06-17T04:41:23.811Z,101879.66
2017-06-17T04:43:56.142Z,101889.61
2017-06-17T04:46:28.495Z,101892.57
2017-06-17T04:49:00.727Z,101893.78
2017-06-17T04:51:33.192Z,101888.78
2017-06-17T04:54:05.523Z,101895.88
2017-06-17T04:56:37.952Z,101892.77
2017-06-17T04:59:10.543Z,101891.34
2017-06-17T05:01:42.708Z,101893.47
2017-06-17T05:04:15.335Z,101887.09
2017-06-17T05:06:47.456Z,101891.49
2017-06-17T05:09:20.080Z,101898.82
2017-06-17T05:11:52.127Z,101906.27
2017-06-17T05:14:24.547Z,101901.30
2017-06-17T05:16:56.862Z,101897.34
2017-06-17T05:19:29.191Z,101886.41
2017-06-17T05:22:01.662Z,101888.42
2017-06-17T05:24:34.091Z,101892.65
2017-06-17T05:27:06.507Z,101893.67
2017-06-17T05:29:38.846Z,101894.53
2017-06-17T05:32:11.254Z,101906.03
2017-06-17T05:34:43.667Z,101898.42
2017-06-17T05:37:17.080Z,101907.19
2017-06-17T05:39:49.495Z,101898.27
2017-06-17T05:42:21.932Z,101902.25
2017-06-17T05:44:54.380Z,101904.70
2017-06-17T05:47:27.009Z,101896.16
2017-06-17T05:49:59.184Z,101893.55
2017-06-17T05:52:38.727Z,101890.00
2017-06-17T05:55:11.098Z,101904.75
2017-06-17T05:57:43.523Z,101907.87
2017-06-17T06:00:15.947Z,101908.03
2017-06-17T06:02:48.373Z,101900.31
2017-06-17T06:05:20.747Z,101897.62
2017-06-17T06:07:53.117Z,101891.99
2017-06-17T06:10:25.597Z,101901.91
2017-06-17T06:12:58.024Z,101904.27
2017-06-17T06:15:30.411Z,101905.83
2017-06-17T06:18:02.708Z,101903.47
2017-06-17T06:20:35.019Z,101919.30
2017-06-17T06:23:07.451Z,101916.84
2017-06-17T06:25:39.832Z,101923.02
2017-06-17T06:28:12.212Z,101922.03
2017-06-17T06:30:44.667Z,101920.34
2017-06-17T06:33:17.057Z,101920.41
2017-06-17T06:35:49.316Z,101925.98
2017-06-17T06:38:22.471Z,101927.20
2017-06-17T06:40:55.071Z,101919.13
2017-06-17T06:43:27.445Z,101921.55
2017-06-17T06:46:00.103Z,101936.63
2017-06-17T06:48:32.227Z,101927.41
2017-06-17T06:51:04.621Z,101928.16
2017-06-17T06:53:37.239Z,101925.49
2017-06-17T06:56:09.660Z,101930.73
2017-06-17T06:58:41.987Z,101937.75
2017-06-17T07:01:14.367Z,101939.63
2017-06-17T07:03:46.635Z,101934.01
2017-06-17T07:06:18.979Z,101937.77
2017-06-17T07:08:51.467Z,101937.14
2017-06-17T07:11:24.247Z,101934.72
2017-06-17T07:13:56.327Z,101932.36
2017-06-17T07:16:28.912Z,101936.11
2017-06-17T07:19:01.352Z,101937.98
2017-06-17T07:21:33.664Z,101930.20
2017-06-17T07:24:06.010Z,101925.91
2017-06-17T07:26:38.452Z,101937.97
2017-06-17T07:29:10.888Z,101942.43
2017-06-17T07:31:43.627Z,101938.51
2017-06-17T07:34:16.023Z,101950.49
2017-06-17T07:36:47.979Z,101953.61
2017-06-17T07:39:20.668Z,101957.41
2017-06-17T07:41:52.748Z,101961.17
2017-06-17T07:44:25.132Z,101961.36
2017-06-17T07:46:57.499Z,101959.23
2017-06-17T07:49:30.840Z,101957.34
2017-06-17T07:52:03.164Z,101953.54
2017-06-17T07:54:35.558Z,101957.68
2017-06-17T07:57:07.978Z,101957.20
2017-06-17T07:59:40.496Z,101955.41
2017-06-17T08:02:12.943Z,101943.95
2017-06-17T08:04:45.463Z,101945.34
2017-06-17T08:07:17.853Z,101944.21
2017-06-17T08:09:50.293Z,101954.09
2017-06-17T08:12:22.718Z,101962.00
2017-06-17T08:14:55.264Z,101966.41
2017-06-17T08:17:27.630Z,101960.42
2017-06-17T08:20:00.020Z,101953.50
2017-06-17T08:22:32.456Z,101960.23
2017-06-17T08:25:05.631Z,101957.73
2017-06-17T08:27:38.200Z,101970.67
2017-06-17T08:30:10.628Z,101964.66
2017-06-17T08:32:42.966Z,101967.31
2017-06-17T08:35:16.395Z,101967.45
2017-06-17T08:37:48.988Z,101961.30
2017-06-17T08:40:21.269Z,101971.36
2017-06-17T08:42:54.166Z,101974.12
2017-06-17T08:45:26.192Z,101985.85
2017-06-17T08:47:58.355Z,101974.98
2017-06-17T08:50:30.781Z,101978.81
2017-06-17T08:53:03.088Z,101975.13
2017-06-17T08:55:36.504Z,101981.02
2017-06-17T08:58:08.959Z,101979.48
2017-06-17T09:00:41.544Z,101979.70
2017-06-17T09:03:13.891Z,101978.92
2017-06-17T09:05:46.283Z,101974.46
2017-06-17T09:08:18.651Z,101979.95
2017-06-17T09:10:51.099Z,101976.77
2017-06-17T09:13:23.707Z,101984.27
2017-06-17T09:15:56.511Z,101969.28
2017-06-17T09:18:29.088Z,101966.82
2017-06-17T09:21:02.839Z,101971.70
2017-06-17T09:23:34.839Z,101981.46
2017-06-17T09:26:07.231Z,101992.43
2017-06-17T09:28:39.643Z,101990.98
2017-06-17T09:31:19.172Z,101984.00
2017-06-17T09:33:52.566Z,101980.91
2017-06-17T09:36:24.882Z,101980.56
2017-06-17T09:38:57.583Z,101988.74
2017-06-17T09:41:29.664Z,101987.30
2017-06-17T09:44:02.125Z,101994.75
2017-06-17T09:46:34.584Z,101987.81
2017-06-17T09:49:06.956Z,101986.20
2017-06-17T09:51:39.230Z,101983.31
2017-06-17T09:54:11.844Z,101981.71
2017-06-17T09:56:44.031Z,101986.45
2017-06-17T09:59:16.520Z,101990.22
2017-06-17T10:01:48.850Z,101985.89
2017-06-17T10:04:21.376Z,101985.17
2017-06-17T10:06:53.716Z,101983.88
2017-06-17T10:09:26.111Z,101991.12
2017-06-17T10:11:58.712Z,101992.45
2017-06-17T10:14:31.035Z,101989.59
2017-06-17T10:17:03.415Z,101993.05
2017-06-17T10:19:35.815Z,101998.84
2017-06-17T10:22:08.291Z,101994.43
2017-06-17T10:24:40.687Z,101990.86
2017-06-17T10:27:13.164Z,101994.22
2017-06-17T10:29:45.612Z,101993.50
2017-06-17T10:32:17.959Z,101997.35
2017-06-17T10:34:50.372Z,102007.48
2017-06-17T10:37:22.788Z,101997.44
2017-06-17T10:39:55.287Z,102003.40
2017-06-17T10:42:27.639Z,102013.09
2017-06-17T10:45:00.054Z,102015.53
2017-06-17T10:47:32.403Z,102015.11
2017-06-17T10:50:04.811Z,102014.91
2017-06-17T10:52:37.104Z,102020.00
2017-06-17T10:55:09.526Z,102023.22
2017-06-17T10:57:41.931Z,102014.98
2017-06-17T11:00:14.331Z,102011.70
2017-06-17T11:02:46.648Z,102008.41
2017-06-17T11:05:19.020Z,102003.08
2017-06-17T11:07:51.428Z,102012.85
2017-06-17T11:10:24.168Z,102013.94
2017-06-17T11:12:56.360Z,102013.56
2017-06-17T11:15:28.846Z,102015.75
2017-06-17T11:18:01.304Z,102008.65
2017-06-17T11:20:33.782Z,102010.47
2017-06-17T11:23:06.324Z,102009.27
2017-06-17T11:25:39.441Z,102007.28
2017-06-17T11:28:11.975Z,101994.85
2017-06-17T11:30:44.347Z,102000.50
2017-06-17T11:33:16.757Z,101993.72
2017-06-17T11:35:49.255Z,101993.23
2017-06-17T11:38:21.622Z,102005.28
2017-06-17T11:40:54.108Z,102005.08
2017-06-17T11:43:26.471Z,101992.87
2017-06-17T11:45:58.911Z,101993.17
2017-06-17T11:48:31.543Z,101992.81
2017-06-17T11:51:03.898Z,101994.01
2017-06-17T11:53:36.192Z,101995.02
2017-06-17T11:56:08.667Z,102000.92
2017-06-17T11:58:41.027Z,101986.46
2017-06-17T12:01:13.548Z,101993.46
2017-06-17T12:03:45.763Z,101991.20
2017-06-17T12:06:18.057Z,101990.02
2017-06-17T12:08:50.491Z,101984.09
2017-06-17T12:11:22.984Z,101983.25
2017-06-17T12:13:55.443Z,101978.36
2017-06-17T12:16:27.953Z,101975.45
2017-06-17T12:19:00.376Z,101981.27
2017-06-17T12:21:32.887Z,101983.25
2017-06-17T12:24:05.919Z,101979.47
2017-06-17T12:26:37.727Z,101978.71
2017-06-17T12:29:10.031Z,101976.55
2017-06-17T12:31:42.796Z,101976.86
2017-06-17T12:34:14.901Z,101977.93
2017-06-17T12:36:47.243Z,101979.13
2017-06-17T12:39:20.540Z,101976.38
2017-06-17T12:41:52.992Z,101978.33
2017-06-17T12:44:25.276Z,101983.55
2017-06-17T12:46:57.635Z,101980.64
2017-06-17T12:49:30.395Z,101986.65
2017-06-17T12:52:02.679Z,101990.72
2017-06-17T12:54:34.654Z,101984.67
2017-06-17T12:57:07.020Z,101991.52
2017-06-17T12:59:39.415Z,101998.35
2017-06-17T13:02:11.670Z,102001.19
2017-06-17T13:04:48.243Z,101994.66
2017-06-17T13:07:20.516Z,101999.39
2017-06-17T13:09:53.272Z,101989.43
2017-06-17T13:12:25.385Z,101994.90
2017-06-17T13:14:57.742Z,101983.23
2017-06-17T13:17:30.137Z,101987.28
2017-06-17T13:20:02.425Z,101994.08
2017-06-17T13:22:34.687Z,101988.95
2017-06-17T13:25:07.101Z,101989.61
2017-06-17T13:27:39.691Z,101993.77
2017-06-17T13:30:11.854Z,101993.80
2017-06-17T13:32:45.449Z,101988.77
2017-06-17T13:35:18.116Z,101991.66
2017-06-17T13:37:50.375Z,101995.97
2017-06-17T13:40:22.755Z,101992.59
2017-06-17T13:42:55.038Z,101992.15
2017-06-17T13:45:27.416Z,101987.97
2017-06-17T13:48:00.027Z,101998.65
2017-06-17T13:50:32.326Z,102001.75
2017-06-17T13:53:04.808Z,101999.63
2017-06-17T13:55:37.147Z,101992.77
2017-06-17T13:58:09.719Z,102002.55
2017-06-17T14:00:41.892Z,102001.77
2017-06-17T14:03:14.284Z,102002.35
2017-06-17T14:05:46.649Z,102002.02
2017-06-17T14:08:19.047Z,101998.08
2017-06-17T14:10:51.108Z,102004.31
2017-06-17T14:13:24.203Z,102007.16
2017-06-17T14:15:56.852Z,102003.00
2017-06-17T14:18:29.208Z,102008.42
2017-06-17T14:21:21.488Z,102013.50
2017-06-17T14:23:53.388Z,102015.73
2017-06-17T14:26:25.620Z,102016.37
2017-06-17T14:28:57.900Z,102017.97
2017-06-17T14:31:30.280Z,102014.30
2017-06-17T14:34:02.577Z,102012.20
2017-06-17T14:36:34.942Z,102023.24
2017-06-17T14:39:07.323Z,102024.11
2017-06-17T14:41:39.562Z,102020.05
2017-06-17T14:44:11.892Z,102021.55
2017-06-17T14:46:44.283Z,102020.28
2017-06-17T14:49:16.701Z,102019.45
2017-06-17T14:51:48.880Z,102017.20
2017-06-17T14:54:21.299Z,102010.53
2017-06-17T14:56:53.783Z,102014.00
2017-06-17T14:59:26.182Z,102008.98
2017-06-17T15:01:58.525Z,102004.56
2017-06-17T15:04:31.104Z,102000.31
2017-06-17T15:07:03.279Z,102007.79
2017-06-17T15:09:35.624Z,102009.91
2017-06-17T15:12:07.948Z,102008.70
2017-06-17T15:14:40.503Z,102001.64
2017-06-17T15:17:12.607Z,101996.64
2017-06-17T15:19:44.975Z,101997.73
2017-06-17T15:22:17.176Z,101997.00
2017-06-17T15:24:49.399Z,101993.16
2017-06-17T15:27:21.628Z,101998.92
2017-06-17T15:29:53.935Z,101995.57
2017-06-17T15:32:26.300Z,101992.34
2017-06-17T15:34:58.669Z,101993.78
2017-06-17T15:37:30.925Z,101992.41
2017-06-17T15:40:03.202Z,101990.51
2017-06-17T15:42:35.478Z,101990.45
2017-06-17T15:45:07.803Z,101989.55
2017-06-17T15:47:40.233Z,101990.17
2017-06-17T15:50:12.652Z,101984.35
2017-06-17T15:52:44.919Z,101989.02
2017-06-17T15:55:17.262Z,101983.38
2017-06-17T15:57:49.738Z,101992.27
2017-06-17T16:00:22.024Z,101994.39
2017-06-17T16:02:54.356Z,101988.53
2017-06-17T16:05:26.690Z,101990.86
2017-06-17T16:07:59.072Z,101998.17
2017-06-17T16:10:31.520Z,101997.70
2017-06-17T16:13:03.888Z,101998.23
2017-06-17T16:15:36.348Z,101995.66
2017-06-17T16:18:08.560Z,101994.55
2017-06-17T16:20:40.744Z,101996.47
2017-06-17T16:23:12.965Z,101997.45
2017-06-17T16:25:45.452Z,101998.66
2017-06-17T16:28:17.423Z,101993.82
2017-06-17T16:30:49.761Z,101991.60
2017-06-17T16:33:22.100Z,101994.38
2017-06-17T16:35:54.421Z,101988.88
2017-06-17T16:38:26.783Z,101989.25
2017-06-17T16:41:00.292Z,101991.17
2017-06-17T16:43:32.665Z,101995.83
2017-06-17T16:46:05.649Z,102001.31
2017-06-17T16:48:38.396Z,102005.22
2017-06-17T16:51:10.755Z,101999.37
2017-06-17T16:53:43.161Z,101998.77
2017-06-17T16:56:15.515Z,101995.30
2017-06-17T16:58:47.740Z,101991.16
2017-06-17T17:01:20.134Z,101990.55
2017-06-17T17:03:52.491Z,101994.19
2017-06-17T17:06:24.864Z,101997.36
2017-06-17T17:08:57.325Z,101993.27
2017-06-17T17:11:29.719Z,101987.80
2017-06-17T17:14:01.938Z,101985.80
2017-06-17T17:16:34.240Z,101980.86
2017-06-17T17:19:06.709Z,101987.70
2017-06-17T17:21:39.075Z,101987.34
2017-06-17T17:24:11.328Z,101982.84
2017-06-17T17:26:43.743Z,101990.05
2017-06-17T17:29:15.887Z,101990.43
2017-06-17T17:31:48.284Z,101999.18
2017-06-17T17:34:20.554Z,101989.61
2017-06-17T17:36:52.837Z,101984.65
2017-06-17T17:39:25.092Z,101985.25
2017-06-17T17:41:57.387Z,101992.48
2017-06-17T17:44:29.603Z,101988.50
2017-06-17T17:47:02.980Z,101980.55
2017-06-17T17:49:35.344Z,101984.56
2017-06-17T17:52:07.708Z,101969.97
2017-06-17T17:54:40.761Z,101977.19
2017-06-17T17:57:13.307Z,101989.49
2017-06-17T17:59:45.679Z,101991.77
2017-06-17T18:02:17.978Z,101993.00
2017-06-17T18:04:50.211Z,101988.44
2017-06-17T18:07:23.467Z,101992.83
2017-06-17T18:09:55.800Z,101988.81
2017-06-17T18:12:28.135Z,101997.95
2017-06-17T18:15:00.512Z,101995.02
2017-06-17T18:17:32.866Z,102001.47
2017-06-17T18:20:05.163Z,102001.85
2017-06-17T18:22:37.404Z,101998.67
2017-06-17T18:25:09.804Z,101998.56
2017-06-17T18:27:42.125Z,102001.55
2017-06-17T18:30:14.371Z,102005.66
2017-06-17T18:32:46.877Z,102005.86
2017-06-17T18:35:19.263Z,102009.31
2017-06-17T18:37:51.604Z,102006.98
2017-06-17T18:40:23.905Z,102012.00
2017-06-17T18:42:56.191Z,102010.44
2017-06-17T18:45:28.604Z,102012.30
2017-06-17T18:48:00.912Z,102009.95
2017-06-17T18:50:33.255Z,102011.20
2017-06-17T18:53:05.554Z,102014.83
2017-06-17T18:55:38.776Z,102008.99
2017-06-17T18:58:11.276Z,102016.48
2017-06-17T19:00:43.444Z,102012.58
2017-06-17T19:03:15.840Z,102016.45
2017-06-17T19:05:48.032Z,102018.75
2017-06-17T19:08:20.475Z,102014.23
2017-06-17T19:10:52.743Z,102017.03
2017-06-17T19:13:25.147Z,102020.70
2017-06-17T19:15:57.507Z,102015.73
2017-06-17T19:18:29.984Z,102022.14
2017-06-17T19:21:02.263Z,102027.77
2017-06-17T19:23:34.633Z,102022.30
2017-06-17T19:26:07.104Z,102025.20
2017-06-17T19:28:39.492Z,102027.41
2017-06-17T19:31:11.847Z,102030.91
2017-06-17T19:33:44.332Z,102035.14
2017-06-17T19:36:16.684Z,102042.21
2017-06-17T19:38:49.184Z,102039.47
2017-06-17T19:41:21.657Z,102042.20
2017-06-17T19:43:54.967Z,102034.16
2017-06-17T19:46:27.290Z,102040.94
2017-06-17T19:48:59.820Z,102049.43
2017-06-17T19:51:32.208Z,102049.50
2017-06-17T19:54:05.552Z,102051.88
2017-06-17T19:56:37.946Z,102049.14
2017-06-17T19:59:10.400Z,102043.70
2017-06-17T20:01:42.688Z,102046.14
2017-06-17T20:04:15.345Z,102046.72
2017-06-17T20:06:47.515Z,102051.75
2017-06-17T20:09:19.855Z,102049.21
2017-06-17T20:11:52.176Z,102045.64
2017-06-17T20:14:24.600Z,102045.55
2017-06-17T20:16:56.928Z,102047.91
2017-06-17T20:19:30.311Z,102039.61
2017-06-17T20:22:17.708Z,102041.41
2017-06-17T20:24:50.559Z,102045.93
2017-06-17T20:27:23.324Z,102046.66
2017-06-17T20:29:56.656Z,102054.28
2017-06-17T20:32:29.275Z,102059.01
2017-06-17T20:35:01.813Z,102062.30
2017-06-17T20:37:34.269Z,102063.03
2017-06-17T20:40:06.752Z,102063.87
2017-06-17T20:42:39.099Z,102071.36
2017-06-17T20:45:11.529Z,102072.74
2017-06-17T20:47:43.975Z,102064.45
2017-06-17T20:50:16.263Z,102069.98
2017-06-17T20:52:48.575Z,102069.36
2017-06-17T20:55:21.244Z,102069.47
2017-06-17T20:57:53.249Z,102070.36
2017-06-17T21:00:25.631Z,102068.70
2017-06-17T21:02:58.044Z,102069.53
2017-06-17T21:05:30.487Z,102075.78
2017-06-17T21:08:02.827Z,102072.12
2017-06-17T21:10:35.817Z,102070.22
2017-06-17T21:13:07.815Z,102079.89
2017-06-17T21:15:40.359Z,102074.53
2017-06-17T21:18:12.504Z,102079.00
2017-06-17T21:20:44.775Z,102079.70
2017-06-17T21:23:17.275Z,102080.83
2017-06-17T21:25:49.743Z,102086.84
2017-06-17T21:28:22.031Z,102089.05
2017-06-17T21:30:54.630Z,102084.52
2017-06-17T21:33:26.896Z,102097.55
2017-06-17T21:35:59.192Z,102093.97
2017-06-17T21:38:31.475Z,102098.44
2017-06-17T21:41:03.707Z,102106.08
2017-06-17T21:43:36.236Z,102093.39
2017-06-17T21:46:08.451Z,102097.80
2017-06-17T21:48:41.087Z,102095.92
2017-06-17T21:51:13.552Z,102100.30
2017-06-17T21:53:45.666Z,102106.18
2017-06-17T21:56:18.140Z,102112.03
2017-06-17T21:58:50.479Z,102116.36
2017-06-17T22:01:23.751Z,102117.04
2017-06-17T22:03:56.144Z,102114.34
2017-06-17T22:06:28.568Z,102114.88
2017-06-17T22:09:01.195Z,102116.10
2017-06-17T22:11:34.320Z,102118.77
2017-06-17T22:14:06.799Z,102124.67
2017-06-17T22:16:39.188Z,102120.20
2017-06-17T22:19:11.544Z,102125.63
2017-06-17T22:21:43.898Z,102126.50
2017-06-17T22:24:16.332Z,102126.03
2017-06-17T22:26:48.780Z,102121.27
2017-06-17T22:29:21.135Z,102124.95
2017-06-17T22:31:53.535Z,102126.33
2017-06-17T22:34:26.002Z,102126.77
2017-06-17T22:36:58.447Z,102124.19
2017-06-17T22:39:30.901Z,102127.83
2017-06-17T22:42:03.388Z,102129.95
2017-06-17T22:44:35.724Z,102132.73
2017-06-17T22:47:08.052Z,102134.78
2017-06-17T22:49:40.335Z,102126.55
2017-06-17T22:52:12.752Z,102129.77
2017-06-17T22:54:45.088Z,102126.44
2017-06-17T22:57:17.546Z,102138.58
2017-06-17T22:59:50.000Z,102133.91
2017-06-17T23:02:22.508Z,102136.80
2017-06-17T23:04:55.621Z,102135.67
2017-06-17T23:07:28.123Z,102136.48
2017-06-17T23:10:00.460Z,102127.33
2017-06-17T23:12:32.927Z,102125.86
2017-06-17T23:15:05.431Z,102126.89
2017-06-17T23:17:37.824Z,102121.62
2017-06-17T23:20:10.200Z,102124.90
2017-06-17T23:22:42.611Z,102120.50
2017-06-17T23:25:14.998Z,102116.11
2017-06-17T23:27:48.735Z,102126.66
2017-06-17T23:30:20.762Z,102128.14
2017-06-17T23:32:53.144Z,102135.17
2017-06-17T23:35:25.649Z,102138.15
2017-06-17T23:37:57.886Z,102135.78
2017-06-17T23:40:30.432Z,102137.63
2017-06-17T23:43:02.649Z,102140.78
2017-06-17T23:45:35.004Z,102140.84
2017-06-17T23:48:07.887Z,102138.31
2017-06-17T23:50:39.744Z,102135.23
2017-06-17T23:53:12.211Z,102135.07
2017-06-17T23:55:44.622Z,102138.84
2017-06-17T23:58:17.083Z,102141.42
